Time;durP1;ratioP1;P1;durP2;ratioP2;P2;SDS_P1;SDS_P2;PMS_P1;PMS_P2;Temp;Humidity;BMP_temperature;BMP_pressure;BME280_temperature;BME280_humidity;BME280_pressure;Samples;Min_cycle;Max_cycle;Signal;HPM_P1;HPM_P2
2022/09/25 00:01:36;;;;;;;4.35;3.95;;;;;;;14.70;96.69;100476.13;5050521;28;20246;-69
2022/09/25 00:04:05;;;;;;;9.85;4.68;;;;;;;14.58;96.31;100475.22;5053861;28;20234;-69
2022/09/25 00:06:32;;;;;;;4.60;4.20;;;;;;;14.41;98.06;100476.88;5055376;28;20226;-69
2022/09/25 00:09:01;;;;;;;4.50;4.07;;;;;;;14.31;100.00;100468.94;5056434;28;20240;-69
2022/09/25 00:11:30;;;;;;;4.22;3.88;;;;;;;13.65;100.00;100367.72;5051117;28;20210;-69
2022/09/25 00:13:58;;;;;;;5.70;4.15;;;;;;;14.18;100.00;100468.84;5056443;28;20207;-69
2022/09/25 00:16:27;;;;;;;8.02;4.65;;;;;;;14.06;100.00;100456.59;5054940;28;20208;-69
2022/09/25 00:21:40;;;;;;;5.28;4.78;;;;;;;13.78;100.00;100467.69;5054024;28;20202;-69
2022/09/25 00:24:09;;;;;;;5.20;4.70;;;;;;;13.64;100.00;100458.88;5050866;28;20191;-70
2022/09/25 00:26:39;;;;;;;4.72;4.32;;;;;;;13.53;100.00;100450.09;5052338;28;20729;-69
2022/09/25 00:29:07;;;;;;;4.82;4.43;;;;;;;13.44;100.00;100461.31;5057120;28;20215;-69
2022/09/25 00:31:34;;;;;;;4.97;4.50;;;;;;;13.26;100.00;100425.56;5054234;28;20204;-69
2022/09/25 00:34:03;;;;;;;5.65;5.05;;;;;;;13.40;100.00;100439.56;5053165;28;20222;-69
2022/09/25 00:36:30;;;;;;;9.23;5.28;;;;;;;13.17;100.00;100412.44;5055889;28;20202;-69
2022/09/25 00:38:59;;;;;;;7.30;5.00;;;;;;;13.22;100.00;100433.31;5056550;28;20244;-70
2022/09/25 00:41:28;;;;;;;5.53;5.05;;;;;;;13.11;100.00;100441.00;5049741;28;20706;-69
2022/09/25 00:43:57;;;;;;;5.03;4.60;;;;;;;13.05;100.00;100442.66;5056725;28;20191;-69
2022/09/25 00:46:28;;;;;;;6.78;4.32;;;;;;;12.89;100.00;100423.38;5052143;28;20892;-69
2022/09/25 00:48:59;;;;;;;5.70;5.20;;;;;;;12.88;100.00;100437.25;5050868;28;20211;-69
2022/09/25 00:51:33;;;;;;;5.70;5.13;;;;;;;12.62;100.00;100397.06;5053823;28;20674;-69
2022/09/25 00:54:05;;;;;;;8.75;5.32;;;;;;;12.69;100.00;100424.88;5045738;28;20208;-69
2022/09/25 00:56:37;;;;;;;5.80;5.20;;;;;;;12.69;100.00;100427.50;5058288;28;20196;-69
2022/09/25 00:59:05;;;;;;;5.93;5.32;;;;;;;12.66;100.00;100422.25;5035008;28;20201;-68
2022/09/25 01:01:32;;;;;;;12.13;5.97;;;;;;;12.62;100.00;100426.56;5049040;28;20786;-69
2022/09/25 01:04:00;;;;;;;6.13;5.53;;;;;;;12.57;100.00;100411.72;5049867;28;20207;-70
2022/09/25 01:06:27;;;;;;;6.03;5.43;;;;;;;12.64;100.00;100410.94;5019604;28;20234;-69
2022/09/25 01:08:54;;;;;;;10.55;5.93;;;;;;;12.54;100.00;100396.97;5054893;28;20230;-69
2022/09/25 01:11:22;;;;;;;7.97;5.45;;;;;;;12.63;100.00;100412.66;5055899;28;20284;-69
2022/09/25 01:13:52;;;;;;;6.28;5.60;;;;;;;12.52;100.00;100401.25;5057230;28;20205;-69
2022/09/25 01:16:26;;;;;;;7.13;5.85;;;;;;;12.52;100.00;100397.81;5052834;28;20264;-69
2022/09/25 01:19:03;;;;;;;9.43;5.72;;;;;;;12.48;100.00;100404.69;5053859;28;20198;-70
2022/09/25 01:21:39;;;;;;;6.50;5.78;;;;;;;12.36;100.00;100408.00;5051198;28;20779;-69
2022/09/25 01:24:35;;;;;;;6.10;5.55;;;;;;;12.30;100.00;100405.34;5055453;28;20210;-69
2022/09/25 01:27:40;;;;;;;7.63;6.53;;;;;;;12.28;100.00;100407.03;5045836;28;20277;-69
2022/09/25 01:30:12;;;;;;;7.22;5.90;;;;;;;12.26;100.00;100403.56;5050695;28;20318;-69
2022/09/25 01:32:50;;;;;;;9.52;5.85;;;;;;;12.24;100.00;100405.25;5055001;28;20744;-69
2022/09/25 01:35:25;;;;;;;7.28;6.57;;;;;;;12.20;100.00;100403.44;5054637;28;20214;-69
2022/09/25 01:37:58;;;;;;;9.27;6.75;;;;;;;12.11;100.00;100387.75;5060524;28;20190;-69
2022/09/25 01:40:32;;;;;;;8.57;7.30;;;;;;;12.12;100.00;100389.50;5051156;28;20547;-69
2022/09/25 01:43:07;;;;;;;7.38;6.43;;;;;;;12.06;100.00;100381.59;5050391;28;20656;-69
2022/09/25 01:45:42;;;;;;;7.75;6.43;;;;;;;12.19;100.00;100395.66;5016331;28;20202;-69
2022/09/25 01:48:12;;;;;;;8.45;6.18;;;;;;;12.24;100.00;100399.16;5052431;28;20202;-69
2022/09/25 01:50:44;;;;;;;7.18;6.47;;;;;;;12.28;100.00;100400.94;5051265;28;20199;-69
2022/09/25 01:53:17;;;;;;;6.55;5.95;;;;;;;12.25;100.00;100396.59;5056117;28;20199;-69
2022/09/25 01:55:48;;;;;;;6.70;6.07;;;;;;;12.15;100.00;100388.66;5054209;28;20199;-69
2022/09/25 01:58:21;;;;;;;8.15;6.53;;;;;;;12.21;100.00;100397.41;5052942;28;20210;-69
2022/09/25 02:00:54;;;;;;;9.40;5.97;;;;;;;12.06;100.00;100367.72;5042135;28;20673;-69
2022/09/25 02:03:26;;;;;;;6.13;5.63;;;;;;;11.51;100.00;100282.94;5051524;28;20195;-69
2022/09/25 02:05:57;;;;;;;11.18;6.25;;;;;;;12.12;100.00;100405.09;5046553;28;20231;-69
2022/09/25 02:08:27;;;;;;;7.55;6.22;;;;;;;12.12;100.00;100405.09;5050850;28;20231;-69
2022/09/25 02:10:57;;;;;;;6.90;6.20;;;;;;;12.07;100.00;100393.75;5053793;28;20214;-69
2022/09/25 02:13:27;;;;;;;8.27;6.40;;;;;;;12.06;100.00;100394.59;5051423;28;20214;-69
2022/09/25 02:15:58;;;;;;;7.00;6.10;;;;;;;11.95;100.00;100398.75;5051038;28;20659;-69
2022/09/25 02:21:18;;;;;;;10.55;6.88;;;;;;;11.83;100.00;100399.47;5051723;28;20307;-69
2022/09/25 02:23:52;;;;;;;7.28;6.45;;;;;;;11.77;100.00;100403.72;5047255;28;20253;-69
2022/09/25 02:26:26;;;;;;;8.00;6.68;;;;;;;11.65;100.00;100380.09;5061165;28;20231;-69
2022/09/25 02:28:53;;;;;;;9.23;6.80;;;;;;;11.65;100.00;100395.69;5054671;28;20211;-69
2022/09/25 02:31:25;;;;;;;9.05;6.38;;;;;;;11.65;100.00;100387.88;5054531;28;20337;-69
2022/09/25 02:33:52;;;;;;;7.47;6.72;;;;;;;11.58;100.00;100384.34;5050803;28;20202;-69
2022/09/25 02:36:22;;;;;;;8.02;6.68;;;;;;;11.57;100.00;100384.28;5021787;28;20620;-69
2022/09/25 02:38:50;;;;;;;9.00;6.75;;;;;;;11.56;100.00;100385.16;5059376;28;20199;-69
2022/09/25 02:41:27;;;;;;;6.65;6.05;;;;;;;11.54;100.00;100382.53;5065510;28;20226;-69
2022/09/25 02:44:02;;;;;;;7.57;6.45;;;;;;;11.70;100.00;100404.44;5033415;28;20219;-69
2022/09/25 02:46:42;;;;;;;8.02;5.82;;;;;;;11.67;100.00;100404.34;5041570;28;20636;-69
2022/09/25 02:49:19;;;;;;;6.10;5.47;;;;;;;11.76;100.00;100400.22;5053250;28;20253;-69
2022/09/25 02:51:55;;;;;;;6.88;5.10;;;;;;;11.75;100.00;100419.25;5053521;28;20268;-69
2022/09/25 02:54:28;;;;;;;6.10;5.30;;;;;;;11.72;100.00;100418.34;5012828;28;20260;-69
2022/09/25 02:57:02;;;;;;;5.72;5.13;;;;;;;11.69;100.00;100419.13;5055968;28;20207;-69
2022/09/25 02:59:34;;;;;;;4.85;4.45;;;;;;;11.68;100.00;100424.28;5054789;28;20203;-69
2022/09/25 03:02:03;;;;;;;4.47;4.05;;;;;;;11.66;100.00;100429.50;5055870;28;20210;-69
2022/09/25 03:04:33;;;;;;;4.88;3.92;;;;;;;11.65;100.00;100426.84;5056482;28;20191;-69
2022/09/25 03:07:01;;;;;;;5.13;4.63;;;;;;;11.17;100.00;100347.28;5056684;28;20219;-69
2022/09/25 03:09:30;;;;;;;4.22;3.92;;;;;;;11.50;100.00;100411.00;5003939;28;20220;-69
2022/09/25 03:11:58;;;;;;;4.82;4.07;;;;;;;11.57;100.00;100433.63;5061058;28;20707;-69
2022/09/25 03:14:27;;;;;;;8.20;4.35;;;;;;;11.55;100.00;100435.34;5054310;28;20205;-69
2022/09/25 03:16:56;;;;;;;4.80;4.18;;;;;;;11.50;100.00;100413.59;5056411;28;20241;-69
2022/09/25 03:19:26;;;;;;;7.22;3.72;;;;;;;11.47;100.00;100417.03;5052268;28;20203;-69
2022/09/25 03:21:54;;;;;;;3.78;3.47;;;;;;;11.51;100.00;100437.03;5055658;28;20191;-69
2022/09/25 03:24:21;;;;;;;4.47;4.05;;;;;;;11.51;100.00;100442.22;5057791;28;20214;-69
2022/09/25 03:26:48;;;;;;;3.30;3.10;;;;;;;11.39;100.00;100411.72;5059829;28;20641;-69
2022/09/25 03:29:16;;;;;;;4.93;3.47;;;;;;;11.58;100.00;100437.97;5054263;28;20199;-69
2022/09/25 03:31:44;;;;;;;3.88;3.58;;;;;;;11.51;100.00;100424.03;5019683;28;20305;-69
2022/09/25 03:34:11;;;;;;;3.50;3.20;;;;;;;11.62;100.00;100442.38;5052208;28;20195;-69
2022/09/25 03:36:40;;;;;;;3.30;3.10;;;;;;;11.63;100.00;100437.19;5056727;28;20211;-69
2022/09/25 03:39:09;;;;;;;6.05;3.20;;;;;;;11.67;100.00;100440.72;5013577;28;20200;-69
2022/09/25 03:41:37;;;;;;;4.85;4.20;;;;;;;11.77;100.00;100448.72;5056892;28;20256;-69
2022/09/25 03:44:04;;;;;;;4.13;3.75;;;;;;;11.41;100.00;100393.56;5061363;28;21900;-69
2022/09/25 03:46:33;;;;;;;4.65;3.13;;;;;;;11.85;100.00;100451.44;5054095;28;20644;-69
2022/09/25 03:49:01;;;;;;;4.53;3.30;;;;;;;11.87;100.00;100447.16;5058057;28;20622;-69
2022/09/25 03:51:29;;;;;;;8.82;4.15;;;;;;;11.93;100.00;100444.66;5052612;28;20714;-69
2022/09/25 03:53:58;;;;;;;5.68;3.83;;;;;;;11.97;100.00;100436.06;5053963;28;20191;-69
2022/09/25 03:56:27;;;;;;;4.65;4.30;;;;;;;12.02;100.00;100439.56;5053475;28;20221;-69
2022/09/25 03:58:54;;;;;;;6.90;4.40;;;;;;;12.12;100.00;100446.69;5050431;28;20578;-69
2022/09/25 04:01:21;;;;;;;7.78;4.38;;;;;;;12.09;100.00;100441.44;5052484;28;20568;-69
2022/09/25 04:03:49;;;;;;;4.00;3.60;;;;;;;12.13;100.00;100453.59;5058258;28;20354;-69
2022/09/25 04:06:18;;;;;;;7.43;3.63;;;;;;;12.03;100.00;100425.75;5056595;28;20199;-69
2022/09/25 04:08:46;;;;;;;4.38;3.72;;;;;;;12.09;100.00;100443.16;5036260;28;20288;-68
2022/09/25 04:11:15;;;;;;;4.60;4.20;;;;;;;12.02;100.00;100423.13;5057486;28;20269;-67
2022/09/25 04:13:43;;;;;;;6.13;4.45;;;;;;;12.07;100.00;100443.13;5055299;28;20195;-68
2022/09/25 04:16:10;;;;;;;5.38;3.33;;;;;;;12.08;100.00;100444.88;5057088;28;20351;-68
2022/09/25 04:18:37;;;;;;;4.32;3.55;;;;;;;12.02;100.00;100444.78;5057112;28;21021;-68
2022/09/25 04:21:07;;;;;;;9.40;4.90;;;;;;;12.05;100.00;100434.44;5053746;28;20200;-69
2022/09/25 04:23:34;;;;;;;5.80;4.72;;;;;;;12.07;100.00;100422.34;5053713;28;20222;-69
2022/09/25 04:26:01;;;;;;;9.20;6.40;;;;;;;12.09;100.00;100428.44;5057477;28;20597;-69
2022/09/25 04:28:31;;;;;;;7.97;5.65;;;;;;;12.05;100.00;100428.38;5050942;28;20227;-69
2022/09/25 04:30:57;;;;;;;6.60;6.00;;;;;;;12.03;100.00;100428.34;5053888;28;20199;-69
2022/09/25 04:36:09;;;;;;;12.45;6.22;;;;;;;12.12;100.00;100412.00;5053540;28;20202;-69
2022/09/25 04:38:35;;;;;;;7.50;6.68;;;;;;;12.19;100.00;100412.13;5026475;28;20225;-69
2022/09/25 04:41:02;;;;;;;8.77;6.35;;;;;;;11.86;100.00;100336.28;5053730;28;20199;-69
2022/09/25 04:43:31;;;;;;;7.45;5.82;;;;;;;12.57;100.00;100412.59;5055606;28;20850;-69
2022/09/25 04:46:01;;;;;;;7.25;5.82;;;;;;;12.80;100.00;100421.56;5054253;28;20202;-69
2022/09/25 04:48:28;;;;;;;11.80;6.60;;;;;;;12.88;100.00;100419.03;5054007;28;20227;-69
2022/09/25 04:50:57;;;;;;;12.85;6.78;;;;;;;12.97;100.00;100415.66;5052018;28;20202;-69
2022/09/25 04:53:24;;;;;;;8.82;6.90;;;;;;;13.04;100.00;100407.06;5056491;28;20191;-69
2022/09/25 04:55:53;;;;;;;13.63;8.13;;;;;;;13.13;100.00;100408.03;5050447;28;20214;-69
2022/09/25 04:58:20;;;;;;;9.30;6.10;;;;;;;13.24;100.00;100419.44;5051824;28;20199;-69
2022/09/25 05:00:48;;;;;;;11.60;7.20;;;;;;;13.25;100.00;100391.66;5055669;28;20265;-69
2022/09/25 05:03:15;;;;;;;18.10;7.20;;;;;;;13.36;100.00;100414.34;5049914;28;20198;-69
2022/09/25 05:05:42;;;;;;;9.85;7.38;;;;;;;13.43;100.00;100412.69;5033805;28;20195;-69
2022/09/25 05:08:10;;;;;;;9.50;7.25;;;;;;;13.30;100.00;100372.66;5041847;28;20231;-69
2022/09/25 05:10:38;;;;;;;9.20;6.82;;;;;;;13.54;100.00;100408.44;5054086;28;20206;-69
2022/09/25 05:13:07;;;;;;;11.32;6.45;;;;;;;13.66;100.00;100415.47;5051632;28;20208;-69
2022/09/25 05:15:35;;;;;;;10.52;5.72;;;;;;;13.77;100.00;100426.84;5056840;28;20222;-69
2022/09/25 05:18:05;;;;;;;7.90;5.70;;;;;;;13.86;100.00;100437.34;5051557;28;20246;-69
2022/09/25 05:20:34;;;;;;;16.63;7.75;;;;;;;13.91;100.00;100438.25;5049723;28;20222;-69
2022/09/25 05:23:03;;;;;;;11.48;7.70;;;;;;;13.97;100.00;100443.50;5052090;28;20211;-68
2022/09/25 05:25:31;;;;;;;11.93;7.97;;;;;;;14.09;100.00;100433.16;5051845;28;20307;-70
2022/09/25 05:27:59;;;;;;;11.77;7.50;;;;;;;13.65;100.00;100346.84;5052677;28;20223;-70
2022/09/25 05:30:28;;;;;;;7.65;6.20;;;;;;;14.05;100.00;100423.59;5052635;28;20218;-69
2022/09/25 05:32:57;;;;;;;10.00;6.63;;;;;;;14.06;100.00;100446.16;5053358;28;20211;-69
2022/09/25 05:35:27;;;;;;;12.93;6.38;;;;;;;14.16;100.00;100447.97;5053573;28;20671;-69
2022/09/25 05:37:53;;;;;;;8.65;6.20;;;;;;;14.27;100.00;100445.41;5050924;28;20211;-69
2022/09/25 05:40:22;;;;;;;6.35;5.72;;;;;;;14.23;100.00;100447.13;5051630;28;20902;-69
2022/09/25 05:42:50;;;;;;;8.73;5.95;;;;;;;14.39;100.00;100438.59;5050299;28;20212;-67
2022/09/25 05:45:19;;;;;;;9.82;6.35;;;;;;;14.54;100.00;100442.13;5050132;28;20202;-68
2022/09/25 05:47:46;;;;;;;6.88;6.18;;;;;;;14.55;100.00;100428.22;5009582;28;20216;-69
2022/09/25 05:50:15;;;;;;;13.15;6.85;;;;;;;14.65;100.00;100443.94;5054203;28;20993;-70
2022/09/25 05:52:44;;;;;;;8.85;6.93;;;;;;;14.58;100.00;100438.69;5056185;28;20207;-69
2022/09/25 05:55:11;;;;;;;10.15;6.78;;;;;;;14.60;100.00;100440.41;5053679;28;20214;-70
2022/09/25 05:57:38;;;;;;;12.82;7.30;;;;;;;14.76;100.00;100434.41;5051262;28;20210;-70
2022/09/25 06:00:08;;;;;;;12.05;7.18;;;;;;;14.80;100.00;100423.09;5051723;28;20200;-69
2022/09/25 06:02:35;;;;;;;12.32;7.20;;;;;;;14.74;100.00;100425.69;5055926;28;20203;-69
2022/09/25 06:05:02;;;;;;;12.38;7.63;;;;;;;14.98;100.00;100427.53;5054773;28;21035;-68
2022/09/25 06:07:29;;;;;;;13.32;8.20;;;;;;;14.95;100.00;100422.25;5054391;28;20227;-68
2022/09/25 06:09:57;;;;;;;9.48;7.40;;;;;;;15.06;100.00;100424.91;5057429;28;20671;-68
2022/09/25 06:12:23;;;;;;;9.82;6.38;;;;;;;15.04;100.00;100429.25;5060006;28;20284;-69
2022/09/25 06:14:51;;;;;;;9.25;6.95;;;;;;;14.94;100.00;100422.28;5064439;28;20199;-70
2022/09/25 06:17:18;;;;;;;11.55;7.95;;;;;;;14.96;100.00;100421.41;5053991;28;20214;-67
2022/09/25 06:19:45;;;;;;;11.40;5.40;;;;;;;14.99;100.00;100424.03;5057006;28;20221;-67
2022/09/25 06:22:12;;;;;;;7.72;5.93;;;;;;;15.08;100.00;100424.06;5050343;28;20269;-68
2022/09/25 06:24:39;;;;;;;11.23;7.30;;;;;;;15.12;100.00;100436.25;5056811;28;20211;-68
2022/09/25 06:27:08;;;;;;;13.30;7.57;;;;;;;15.04;100.00;100421.44;5056008;28;20219;-65
2022/09/25 06:29:35;;;;;;;13.55;8.40;;;;;;;15.12;100.00;100438.88;5049389;28;20196;-67
2022/09/25 06:32:02;;;;;;;7.50;5.32;;;;;;;15.12;100.00;100443.22;5018488;28;20200;-68
2022/09/25 06:34:29;;;;;;;9.52;6.85;;;;;;;15.10;100.00;100430.16;5052797;28;20207;-68
2022/09/25 06:36:55;;;;;;;11.02;6.88;;;;;;;15.50;100.00;100441.56;5050171;28;20192;-69
2022/09/25 06:39:22;;;;;;;6.00;5.05;;;;;;;15.68;100.00;100451.16;5052711;28;20261;-68
2022/09/25 06:41:51;;;;;;;9.18;5.00;;;;;;;15.58;100.00;100454.66;5052296;28;20196;-68
2022/09/25 06:44:20;;;;;;;5.90;5.40;;;;;;;15.71;100.00;100464.22;5047077;28;20748;-69
2022/09/25 06:46:49;;;;;;;7.45;5.13;;;;;;;15.58;100.00;100470.31;5047745;28;20218;-68
2022/09/25 06:49:16;;;;;;;9.75;5.00;;;;;;;15.42;100.00;100473.75;5046202;28;20202;-68
2022/09/25 06:51:43;;;;;;;5.43;4.93;;;;;;;15.14;100.00;100437.13;5049353;28;20196;-68
2022/09/25 06:54:09;;;;;;;4.95;4.50;;;;;;;14.76;100.00;100449.19;5018126;28;20203;-69
2022/09/25 06:56:36;;;;;;;5.15;4.60;;;;;;;15.24;100.00;100472.84;5050415;28;20199;-68
2022/09/25 06:59:04;;;;;;;5.65;5.05;;;;;;;15.33;100.00;100458.94;5051671;28;20272;-67
2022/09/25 07:01:32;;;;;;;7.18;5.60;;;;;;;15.59;100.00;100482.53;5035557;28;20232;-68
2022/09/25 07:03:57;;;;;;;5.68;4.93;;;;;;;15.65;100.00;100479.91;5042732;28;20735;-70
2022/09/25 07:06:27;;;;;;;10.98;6.63;;;;;;;15.80;100.00;100487.78;5042722;28;20201;-68
2022/09/25 07:08:55;;;;;;;5.88;4.55;;;;;;;15.93;100.00;100489.50;5032654;28;20234;-68
2022/09/25 07:11:26;;;;;;;7.47;4.88;;;;;;;16.01;100.00;100490.38;5043710;28;20207;-69
2022/09/25 07:13:54;;;;;;;5.03;4.40;;;;;;;15.95;100.00;100473.81;5049624;28;20234;-69
2022/09/25 07:16:22;;;;;;;5.82;4.38;;;;;;;16.00;100.00;100475.56;5051123;28;20249;-68
2022/09/25 07:18:53;;;;;;;8.02;6.80;;;;;;;16.25;99.16;100482.50;5042965;28;20208;-69
2022/09/25 07:21:23;;;;;;;8.02;6.63;;;;;;;16.38;98.64;100468.50;5039340;28;20204;-69
2022/09/25 07:23:52;;;;;;;4.75;4.35;;;;;;;16.47;98.13;100458.91;5023485;28;20686;-67
2022/09/25 07:26:21;;;;;;;4.63;4.22;;;;;;;16.55;95.14;100444.06;5042662;28;20590;-68
2022/09/25 07:28:52;;;;;;;7.53;5.25;;;;;;;16.66;94.73;100442.28;5047152;28;20314;-70
2022/09/25 07:31:21;;;;;;;7.65;6.20;;;;;;;16.89;92.10;100450.91;5043891;28;20620;-70
2022/09/25 07:33:48;;;;;;;7.40;6.15;;;;;;;16.93;91.95;100436.94;5031942;28;20588;-69
2022/09/25 07:36:17;;;;;;;8.82;6.20;;;;;;;17.07;90.11;100418.50;5044694;28;20208;-70
2022/09/25 07:38:44;;;;;;;5.90;4.47;;;;;;;16.98;86.34;100419.41;5031093;28;20290;-70
2022/09/25 07:41:12;;;;;;;6.65;4.78;;;;;;;17.32;85.27;100447.19;5043244;28;20633;-69
2022/09/25 07:43:39;;;;;;;15.18;6.68;;;;;;;17.04;82.85;100364.38;5040561;28;20262;-70
2022/09/25 07:46:06;;;;;;;4.10;3.80;;;;;;;17.38;78.36;100435.78;5009138;28;20200;-69
2022/09/25 07:48:33;;;;;;;7.63;4.00;;;;;;;17.46;76.28;100435.72;5031104;28;20231;-70
2022/09/25 07:51:01;;;;;;;15.57;8.50;;;;;;;17.48;74.14;100433.97;5031548;28;20207;-70
2022/09/25 07:53:29;;;;;;;5.45;3.80;;;;;;;17.49;75.89;100417.34;5045249;28;20204;-69
2022/09/25 07:55:58;;;;;;;4.18;3.83;;;;;;;17.64;75.08;100427.75;5054648;28;20273;-68
2022/09/25 07:58:25;;;;;;;6.55;4.50;;;;;;;17.98;76.15;100446.69;5050291;28;20710;-70
2022/09/25 08:00:52;;;;;;;5.93;5.32;;;;;;;18.03;71.32;100458.00;5051085;28;20607;-70
2022/09/25 08:03:19;;;;;;;5.53;4.80;;;;;;;18.07;70.69;100449.22;5051317;28;20206;-69
2022/09/25 08:05:45;;;;;;;6.43;4.07;;;;;;;18.22;68.32;100447.34;5044250;28;20204;-70
2022/09/25 08:08:12;;;;;;;4.28;3.97;;;;;;;18.31;67.75;100447.22;5048266;28;20249;-69
2022/09/25 08:10:40;;;;;;;6.13;4.85;;;;;;;18.40;65.58;100451.50;5043315;28;20200;-69
2022/09/25 08:13:07;;;;;;;9.95;5.97;;;;;;;18.43;66.10;100437.47;5037421;28;20669;-70
2022/09/25 08:15:34;;;;;;;12.52;4.55;;;;;;;18.55;64.38;100432.13;5041251;28;20197;-69
2022/09/25 08:18:00;;;;;;;4.78;3.55;;;;;;;18.74;62.65;100449.38;5030925;28;20219;-70
2022/09/25 08:20:27;;;;;;;6.13;5.15;;;;;;;18.83;59.31;100449.28;5045744;28;20608;-70
2022/09/25 08:22:56;;;;;;;4.95;3.63;;;;;;;18.96;58.88;100445.59;5054238;28;20599;-70
2022/09/25 08:25:22;;;;;;;3.05;2.85;;;;;;;19.04;59.08;100449.00;5047800;28;20282;-70
2022/09/25 08:27:51;;;;;;;4.90;3.92;;;;;;;18.97;58.07;100421.06;5041217;28;20223;-71
2022/09/25 08:30:18;;;;;;;7.20;3.13;;;;;;;18.99;58.86;100440.31;5035890;28;20222;-70
2022/09/25 08:32:45;;;;;;;3.72;3.40;;;;;;;19.10;59.03;100443.66;5032724;28;20257;-71
2022/09/25 08:35:13;;;;;;;2.67;2.55;;;;;;;19.26;58.40;100444.31;5044672;28;20238;-70
2022/09/25 08:37:41;;;;;;;3.42;3.17;;;;;;;19.44;56.76;100440.56;5032313;28;20291;-70
2022/09/25 08:40:18;;;;;;;13.35;9.20;;;;;;;19.52;56.82;100425.53;5038990;28;20211;-70
2022/09/25 08:42:46;;;;;;;4.70;4.30;;;;;;;19.68;56.94;100429.66;5032467;28;20238;-70
2022/09/25 08:51:03;;;;;;;10.93;6.10;;;;;;;19.76;54.71;100414.63;5039443;28;20215;-71
2022/09/25 08:53:31;;;;;;;3.65;2.90;;;;;;;19.77;53.33;100400.53;5051024;28;20222;-70
2022/09/25 08:56:16;;;;;;;4.70;3.47;;;;;;;20.02;54.97;100407.13;5050479;28;20561;-70
2022/09/25 08:58:47;;;;;;;7.38;3.30;;;;;;;20.19;53.31;100405.03;5034443;28;20202;-70
2022/09/25 09:01:18;;;;;;;13.52;6.82;;;;;;;20.35;52.83;100399.50;5049907;28;20203;-71
2022/09/25 09:03:52;;;;;;;5.70;4.68;;;;;;;20.36;51.35;100401.25;5050754;28;20600;-71
2022/09/25 09:06:19;;;;;;;7.45;5.55;;;;;;;20.05;49.67;100358.78;5050197;28;20207;-71
2022/09/25 09:08:56;;;;;;;4.00;3.47;;;;;;;20.42;49.64;100398.47;5050132;28;20242;-71
2022/09/25 09:11:30;;;;;;;3.28;2.95;;;;;;;20.68;49.04;100396.19;5050610;28;20218;-70
2022/09/25 09:14:02;;;;;;;4.05;3.72;;;;;;;20.81;47.72;100387.13;5050657;28;20206;-70
2022/09/25 09:16:37;;;;;;;3.20;2.63;;;;;;;20.65;47.05;100383.94;5050595;28;20558;-70
2022/09/25 09:19:06;;;;;;;6.15;3.20;;;;;;;20.49;48.37;100369.34;5048315;28;20666;-70
2022/09/25 09:21:36;;;;;;;4.47;3.78;;;;;;;20.58;48.87;100381.47;5031618;28;20215;-70
2022/09/25 09:24:14;;;;;;;13.98;7.13;;;;;;;20.68;48.87;100375.97;5050628;28;20245;-70
2022/09/25 09:27:14;;;;;;;16.77;8.20;;;;;;;20.89;49.19;100376.41;5031681;28;20203;-70
2022/09/25 09:29:54;;;;;;;4.07;3.65;;;;;;;20.79;47.81;100367.84;5050315;28;20242;-70
2022/09/25 09:32:38;;;;;;;5.72;4.25;;;;;;;20.89;48.51;100366.72;5050540;28;20200;-69
2022/09/25 09:35:15;;;;;;;8.60;5.70;;;;;;;21.10;48.00;100371.53;5050103;28;20199;-69
2022/09/25 09:37:51;;;;;;;3.92;3.05;;;;;;;21.15;47.93;100369.66;5050239;28;20674;-70
2022/09/25 09:40:26;;;;;;;4.45;4.05;;;;;;;21.08;47.34;100368.03;5050610;28;20225;-69
2022/09/25 09:43:03;;;;;;;6.47;4.65;;;;;;;21.14;47.80;100352.13;5050217;28;20723;-69
2022/09/25 09:45:43;;;;;;;5.93;3.47;;;;;;;21.20;47.57;100314.16;5050234;28;20219;-69
2022/09/25 09:48:16;;;;;;;4.93;3.25;;;;;;;21.49;47.21;100350.38;5049997;28;20233;-69
2022/09/25 09:50:47;;;;;;;10.25;6.28;;;;;;;21.50;47.24;100323.97;5050355;28;20214;-70
2022/09/25 09:53:26;;;;;;;5.05;2.80;;;;;;;21.68;45.61;100355.16;5050351;28;20203;-80
2022/09/25 09:55:59;;;;;;;4.20;2.78;;;;;;;21.52;45.32;100355.56;5031489;28;20281;-79
2022/09/25 09:58:31;;;;;;;4.03;3.65;;;;;;;21.50;45.35;100354.75;5049990;28;20619;-78
2022/09/25 10:00:59;;;;;;;4.10;3.67;;;;;;;21.47;45.09;100337.25;5050219;28;20207;-77
2022/09/25 10:03:29;;;;;;;2.83;2.63;;;;;;;21.63;45.05;100348.25;5043627;28;20583;-78
2022/09/25 10:06:00;;;;;;;2.72;2.53;;;;;;;21.45;45.88;100314.41;5039038;28;20204;-69
2022/09/25 10:08:26;;;;;;;3.80;3.47;;;;;;;21.75;45.09;100350.59;4994672;28;20305;-70
2022/09/25 10:10:54;;;;;;;3.70;3.25;;;;;;;21.60;44.71;100303.47;5048629;28;20257;-70
2022/09/25 10:13:25;;;;;;;4.70;3.70;;;;;;;21.66;44.69;100271.63;5035656;28;20679;-71
2022/09/25 10:15:57;;;;;;;3.28;2.70;;;;;;;21.55;44.39;100232.31;5047057;28;20203;-71
2022/09/25 10:18:30;;;;;;;7.47;5.10;;;;;;;22.36;43.91;100344.50;5034560;28;20672;-72
2022/09/25 10:21:02;;;;;;;7.47;4.82;;;;;;;22.51;44.17;100330.00;5036663;28;20257;-73
2022/09/25 10:23:35;;;;;;;3.90;3.50;;;;;;;22.50;42.73;100326.47;5038991;28;20228;-70
2022/09/25 10:26:02;;;;;;;6.85;2.60;;;;;;;22.69;42.73;100340.00;5033045;28;20211;-73
2022/09/25 10:28:33;;;;;;;3.08;2.88;;;;;;;22.84;41.53;100336.91;5013505;28;20216;-69
2022/09/25 10:31:02;;;;;;;4.03;3.53;;;;;;;22.77;40.62;100326.56;5033711;28;20232;-68
2022/09/25 10:33:32;;;;;;;4.50;3.80;;;;;;;22.93;40.99;100335.78;5044993;28;20202;-69
2022/09/25 10:35:59;;;;;;;8.27;4.38;;;;;;;23.00;41.20;100334.66;5030343;28;20212;-71
2022/09/25 10:38:33;;;;;;;3.10;2.90;;;;;;;22.68;41.64;100314.50;5037521;28;20203;-70
2022/09/25 10:41:04;;;;;;;7.40;2.90;;;;;;;22.82;42.09;100312.31;5035995;28;20195;-70
2022/09/25 10:43:32;;;;;;;5.20;3.45;;;;;;;22.92;41.95;100323.44;5045020;28;20199;-70
2022/09/25 10:46:07;;;;;;;3.38;2.97;;;;;;;22.94;41.37;100330.41;5048858;28;20261;-70
2022/09/25 10:51:22;;;;;;;3.33;2.50;;;;;;;22.95;41.38;100295.13;5039891;28;20709;-74
2022/09/25 10:53:50;;;;;;;2.58;2.38;;;;;;;23.25;41.07;100305.63;5051395;28;20204;-68
2022/09/25 10:56:29;;;;;;;6.22;3.78;;;;;;;23.49;40.97;100296.88;5045340;28;20238;-70
2022/09/25 10:59:00;;;;;;;8.93;6.38;;;;;;;23.48;40.80;100297.78;5045585;28;20203;-68
2022/09/25 11:01:33;;;;;;;3.78;2.55;;;;;;;23.14;40.96;100266.31;5063419;28;20199;-71
2022/09/25 11:04:08;;;;;;;2.38;2.28;;;;;;;23.16;39.02;100277.69;5048456;28;20270;-70
2022/09/25 11:06:35;;;;;;;4.90;2.50;;;;;;;23.23;39.33;100279.19;5043276;28;20298;-71
2022/09/25 11:09:14;;;;;;;2.90;2.42;;;;;;;23.24;40.21;100273.00;5040808;28;20238;-71
2022/09/25 11:11:42;;;;;;;3.80;3.17;;;;;;;23.15;39.95;100279.47;5036703;28;20200;-70
2022/09/25 11:14:21;;;;;;;5.05;4.57;;;;;;;23.17;40.67;100267.06;5054846;28;20206;-70
2022/09/25 11:16:51;;;;;;;2.92;2.72;;;;;;;23.13;41.04;100254.84;5039238;28;20207;-70
2022/09/25 11:19:28;;;;;;;6.80;2.58;;;;;;;23.34;41.11;100276.19;5052107;28;20663;-70
2022/09/25 11:22:06;;;;;;;3.05;2.67;;;;;;;23.54;41.14;100260.53;5042768;28;20290;-74
2022/09/25 11:24:45;;;;;;;3.95;3.25;;;;;;;23.63;38.12;100258.44;5054317;28;20200;-70
2022/09/25 11:27:20;;;;;;;3.65;2.90;;;;;;;23.39;38.64;100186.94;5050845;28;20207;-70
2022/09/25 11:29:57;;;;;;;4.50;2.50;;;;;;;24.01;37.65;100229.66;5050493;28;20215;-71
2022/09/25 11:32:31;;;;;;;7.32;2.75;;;;;;;24.28;39.56;100264.91;5053691;28;20211;-74
2022/09/25 11:35:30;;;;;;;8.73;5.65;;;;;;;24.42;38.57;100263.44;5053515;28;20341;-70
2022/09/25 11:38:06;;;;;;;3.10;2.90;;;;;;;23.92;37.52;100198.22;5050326;28;20266;-70
2022/09/25 11:43:49;;;;;;;7.65;3.05;;;;;;;24.26;36.88;100248.22;5036782;28;20259;-70
2022/09/25 11:46:22;;;;;;;4.05;3.58;;;;;;;24.36;36.48;100265.47;5033811;28;20228;-70
2022/09/25 11:48:59;;;;;;;3.78;3.47;;;;;;;24.22;35.35;100246.59;5047188;28;20315;-70
2022/09/25 11:51:39;;;;;;;5.85;3.78;;;;;;;24.25;35.60;100249.13;5037636;28;20214;-71
2022/09/25 11:54:15;;;;;;;7.38;2.90;;;;;;;24.24;36.14;100228.84;5040801;28;20208;-71